Time;durP1;ratioP1;P1;durP2;ratioP2;P2;SDS_P1;SDS_P2;PMS_P1;PMS_P2;Temp;Humidity;BMP_temperature;BMP_pressure;BME280_temperature;BME280_humidity;BME280_pressure;Samples;Min_cycle;Max_cycle;Signal;HPM_P1;HPM_P2
2022/07/24 00:00:00;;;;;;;12.02;10.15;;;23.70;97.80;;;;;;6989224;28;20440;-79
2022/07/24 00:03:22;;;;;;;11.67;10.47;;;23.70;97.40;;;;;;6967370;28;20779;-77
2022/07/24 00:06:44;;;;;;;12.40;10.38;;;23.60;97.80;;;;;;6970959;28;20432;-79
2022/07/24 00:10:08;;;;;;;12.68;10.23;;;23.50;97.80;;;;;;6973357;28;20440;-78
2022/07/24 00:13:30;;;;;;;12.18;10.30;;;23.40;97.80;;;;;;6996268;28;20786;-78
2022/07/24 00:16:53;;;;;;;13.00;10.65;;;23.30;97.80;;;;;;7001167;28;20431;-78
2022/07/24 00:20:16;;;;;;;11.70;10.50;;;23.30;98.10;;;;;;6987208;28;20474;-78
2022/07/24 00:23:38;;;;;;;12.15;10.48;;;23.20;98.50;;;;;;6997933;28;20427;-78
2022/07/24 00:27:00;;;;;;;12.65;10.93;;;23.20;98.60;;;;;;6994603;28;20428;-78
2022/07/24 00:30:23;;;;;;;11.82;10.63;;;23.30;98.60;;;;;;6988930;28;20456;-77
2022/07/24 00:33:48;;;;;;;11.98;10.32;;;23.40;98.70;;;;;;7006572;28;20430;-80
2022/07/24 00:37:10;;;;;;;12.37;10.57;;;23.30;98.60;;;;;;6977367;28;20425;-77
2022/07/24 00:40:32;;;;;;;11.88;10.27;;;23.20;98.70;;;;;;6981203;28;20467;-79
2022/07/24 00:44:04;;;;;;;12.07;10.60;;;23.20;98.80;;;;;;6974141;28;20510;-78
2022/07/24 00:47:27;;;;;;;11.98;10.27;;;23.10;99.00;;;;;;6973795;28;20440;-79
2022/07/24 00:50:50;;;;;;;11.80;10.48;;;23.10;99.00;;;;;;6988264;28;20431;-78
2022/07/24 00:54:14;;;;;;;14.90;10.38;;;23.20;98.80;;;;;;7000345;28;20434;-78
2022/07/24 00:57:36;;;;;;;12.15;9.82;;;23.10;98.90;;;;;;7000193;28;20435;-77
2022/07/24 01:00:58;;;;;;;11.25;10.02;;;23.20;98.90;;;;;;6981256;28;20867;-79
2022/07/24 01:04:21;;;;;;;11.43;10.20;;;23.10;98.60;;;;;;6972412;28;20421;-78
2022/07/24 01:07:44;;;;;;;11.45;10.25;;;23.10;98.90;;;;;;6972572;28;20469;-79
2022/07/24 01:11:07;;;;;;;11.32;9.93;;;22.90;98.30;;;;;;6992208;28;20473;-79
2022/07/24 01:14:32;;;;;;;12.15;10.50;;;22.80;98.60;;;;;;6991159;28;20440;-78
2022/07/24 01:17:54;;;;;;;13.25;10.65;;;22.70;98.50;;;;;;6970812;28;20431;-80
2022/07/24 01:21:18;;;;;;;11.43;10.23;;;22.70;97.90;;;;;;6994101;28;20534;-77
2022/07/24 01:24:40;;;;;;;12.57;10.15;;;22.60;98.90;;;;;;6998521;28;20431;-77
2022/07/24 01:28:02;;;;;;;12.88;10.30;;;22.60;99.00;;;;;;6999932;28;20424;-78
2022/07/24 01:31:24;;;;;;;12.40;10.30;;;22.60;99.30;;;;;;6996461;28;20439;-80
2022/07/24 01:34:46;;;;;;;12.40;10.18;;;22.60;99.20;;;;;;6998873;28;20431;-78
2022/07/24 01:38:10;;;;;;;12.50;10.33;;;22.60;99.20;;;;;;6998980;28;20466;-80
2022/07/24 01:41:32;;;;;;;11.88;10.48;;;22.50;99.60;;;;;;6996638;28;20462;-77
2022/07/24 01:44:54;;;;;;;11.88;10.68;;;22.50;99.70;;;;;;6981464;28;20425;-76
2022/07/24 01:48:17;;;;;;;11.60;10.13;;;22.60;99.60;;;;;;6973172;28;20452;-78
2022/07/24 01:51:39;;;;;;;12.98;10.60;;;22.60;99.30;;;;;;6970640;28;20544;-78
2022/07/24 01:55:03;;;;;;;11.27;10.00;;;22.60;99.60;;;;;;6970185;28;20433;-78
2022/07/24 01:58:25;;;;;;;11.68;10.23;;;22.60;99.70;;;;;;6972730;28;20451;-76
2022/07/24 02:01:47;;;;;;;11.45;10.27;;;22.60;99.80;;;;;;6991886;28;20444;-79
2022/07/24 02:05:10;;;;;;;12.30;9.73;;;22.70;99.60;;;;;;6974816;28;20429;-78
2022/07/24 02:08:32;;;;;;;11.55;10.02;;;22.50;99.40;;;;;;6971134;28;20930;-77
2022/07/24 02:11:55;;;;;;;11.85;10.10;;;22.40;99.70;;;;;;6991215;28;20435;-78
2022/07/24 02:15:17;;;;;;;11.95;10.13;;;22.40;99.90;;;;;;6992899;28;20497;-79
2022/07/24 02:18:40;;;;;;;10.88;9.77;;;22.30;99.90;;;;;;6995411;28;20765;-80
2022/07/24 02:22:02;;;;;;;14.47;10.40;;;22.20;99.70;;;;;;7005556;28;20439;-78
2022/07/24 02:25:24;;;;;;;12.05;10.50;;;22.10;99.90;;;;;;6999274;28;20431;-78
2022/07/24 02:28:48;;;;;;;11.00;9.73;;;22.00;99.90;;;;;;6996161;28;20444;-81
2022/07/24 02:32:10;;;;;;;11.95;10.20;;;21.90;99.90;;;;;;6999699;28;20431;-83
2022/07/24 02:35:32;;;;;;;11.73;10.07;;;21.90;99.90;;;;;;7002058;28;20428;-81
2022/07/24 02:38:54;;;;;;;11.82;10.60;;;21.80;99.90;;;;;;6994298;28;20440;-81
2022/07/24 02:42:16;;;;;;;11.43;10.23;;;21.80;99.90;;;;;;6970534;28;20532;-82
2022/07/24 02:45:40;;;;;;;11.65;10.45;;;21.90;99.90;;;;;;6971820;28;20931;-84
2022/07/24 02:49:02;;;;;;;11.43;10.23;;;21.90;99.90;;;;;;6974057;28;20431;-81
2022/07/24 02:52:24;;;;;;;12.32;10.10;;;22.00;99.90;;;;;;6997299;28;20447;-84
2022/07/24 02:55:46;;;;;;;12.55;10.75;;;21.90;99.90;;;;;;6997255;28;20428;-84
2022/07/24 02:59:08;;;;;;;11.37;10.17;;;21.90;99.90;;;;;;6995845;28;20450;-83
2022/07/24 03:02:32;;;;;;;11.10;9.90;;;21.90;99.90;;;;;;6997269;28;20797;-82
2022/07/24 03:05:54;;;;;;;11.27;10.07;;;21.80;99.90;;;;;;6973901;28;20434;-83
2022/07/24 03:09:16;;;;;;;11.63;10.25;;;21.90;99.90;;;;;;6977562;28;20820;-83
2022/07/24 03:12:40;;;;;;;12.70;11.40;;;21.80;99.90;;;;;;7031176;28;20415;-82
2022/07/24 03:16:02;;;;;;;13.18;10.30;;;21.70;99.90;;;;;;7005781;28;20426;-82
2022/07/24 03:19:25;;;;;;;12.98;10.40;;;21.70;99.90;;;;;;7003851;28;20430;-83
2022/07/24 03:22:47;;;;;;;11.93;9.60;;;21.70;99.90;;;;;;7030907;28;20430;-82
2022/07/24 03:26:10;;;;;;;11.32;10.23;;;21.60;99.90;;;;;;7031059;28;20419;-82
2022/07/24 03:29:32;;;;;;;12.23;10.93;;;21.50;99.90;;;;;;7022736;28;20449;-83
2022/07/24 03:32:54;;;;;;;12.95;10.65;;;21.40;99.90;;;;;;7004288;28;20471;-82
2022/07/24 03:36:17;;;;;;;11.82;10.52;;;21.50;99.90;;;;;;7030923;28;20426;-81
2022/07/24 03:39:39;;;;;;;11.13;10.02;;;21.60;99.90;;;;;;7015881;28;20417;-80
2022/07/24 03:43:02;;;;;;;11.48;10.27;;;21.60;99.90;;;;;;6991449;28;20931;-81
2022/07/24 03:46:24;;;;;;;11.40;10.30;;;21.60;99.90;;;;;;6995940;28;20421;-81
2022/07/24 03:49:46;;;;;;;12.38;10.35;;;21.40;99.90;;;;;;7003440;28;20519;-81
2022/07/24 03:53:10;;;;;;;11.88;10.45;;;21.50;99.90;;;;;;6975747;28;20429;-80
2022/07/24 03:56:32;;;;;;;11.23;10.00;;;21.50;99.90;;;;;;6977240;28;20791;-82
2022/07/24 03:59:54;;;;;;;11.45;10.20;;;21.60;99.90;;;;;;6975659;28;20499;-78
2022/07/24 04:03:16;;;;;;;11.20;10.03;;;21.60;99.90;;;;;;6988823;28;20439;-77
2022/07/24 04:06:38;;;;;;;12.45;10.02;;;21.60;99.90;;;;;;6995868;28;20427;-78
2022/07/24 04:10:01;;;;;;;11.77;10.18;;;21.70;99.90;;;;;;6980118;28;20469;-80
2022/07/24 04:13:24;;;;;;;11.60;10.40;;;21.90;99.90;;;;;;6987993;28;20904;-79
2022/07/24 04:16:46;;;;;;;11.52;10.32;;;21.90;99.90;;;;;;6985634;28;20456;-76
2022/07/24 04:20:10;;;;;;;11.25;9.95;;;21.90;99.90;;;;;;6985020;28;20431;-81
2022/07/24 04:23:33;;;;;;;10.55;9.45;;;22.00;99.90;;;;;;6993992;28;20477;-78
2022/07/24 04:26:56;;;;;;;11.05;9.90;;;22.20;99.90;;;;;;6995986;28;20432;-77
2022/07/24 04:30:18;;;;;;;11.77;10.18;;;22.20;99.80;;;;;;6998892;28;20427;-79
2022/07/24 04:33:40;;;;;;;11.40;10.27;;;22.10;99.70;;;;;;6964950;28;20516;-78
2022/07/24 04:37:02;;;;;;;11.38;9.70;;;21.90;99.90;;;;;;6982302;28;20431;-79
2022/07/24 04:40:24;;;;;;;11.05;9.93;;;21.90;99.90;;;;;;6995384;28;20427;-79
2022/07/24 04:43:48;;;;;;;11.63;9.88;;;21.90;99.90;;;;;;6985458;28;20465;-78
2022/07/24 04:47:10;;;;;;;11.57;9.75;;;21.80;99.90;;;;;;6984795;28;20424;-80
2022/07/24 04:50:33;;;;;;;11.50;10.23;;;21.90;99.90;;;;;;6988337;28;20437;-80
2022/07/24 04:53:55;;;;;;;12.93;11.23;;;21.60;99.90;;;;;;6974972;28;20433;-77
2022/07/24 04:57:17;;;;;;;11.70;10.18;;;20.60;99.90;;;;;;6972389;28;20429;-78
2022/07/24 05:00:41;;;;;;;11.18;10.00;;;21.00;99.90;;;;;;6970704;28;20480;-79
2022/07/24 05:04:03;;;;;;;13.32;11.00;;;21.30;99.90;;;;;;6980170;28;20454;-78
2022/07/24 05:07:25;;;;;;;12.90;11.00;;;21.30;99.90;;;;;;6987695;28;20482;-79
2022/07/24 05:10:47;;;;;;;14.43;11.77;;;21.40;99.90;;;;;;6977873;28;20436;-78
2022/07/24 05:14:09;;;;;;;17.20;14.25;;;21.80;99.90;;;;;;6972311;28;20464;-77
2022/07/24 05:17:34;;;;;;;12.32;10.15;;;22.10;99.90;;;;;;6973497;28;20916;-78
2022/07/24 05:20:56;;;;;;;12.23;11.00;;;22.20;99.90;;;;;;6974377;28;20529;-77
2022/07/24 05:24:18;;;;;;;12.15;10.95;;;22.20;99.90;;;;;;6974347;28;20425;-77
2022/07/24 05:27:40;;;;;;;12.13;10.60;;;22.20;99.90;;;;;;6984830;28;20481;-75
2022/07/24 05:31:02;;;;;;;12.52;11.07;;;22.20;99.90;;;;;;6967738;28;20438;-78
2022/07/24 05:34:26;;;;;;;13.30;11.30;;;22.10;99.90;;;;;;6967050;28;20404;-79
2022/07/24 05:37:48;;;;;;;12.98;11.27;;;21.70;99.90;;;;;;6994697;28;20432;-80
2022/07/24 05:41:11;;;;;;;13.15;11.52;;;21.70;99.90;;;;;;6966643;28;20522;-79
2022/07/24 05:44:33;;;;;;;12.90;11.60;;;21.70;99.90;;;;;;6974863;28;20436;-80
2022/07/24 05:47:55;;;;;;;12.95;11.38;;;21.40;99.90;;;;;;6984489;28;20466;-79
2022/07/24 05:51:18;;;;;;;12.83;11.40;;;21.50;99.90;;;;;;6979314;28;20854;-79
2022/07/24 05:54:40;;;;;;;13.63;11.50;;;21.60;99.90;;;;;;6982796;28;20455;-79
2022/07/24 05:58:03;;;;;;;13.75;11.48;;;21.70;99.90;;;;;;6979221;28;20452;-79
2022/07/24 06:01:29;;;;;;;12.90;11.10;;;21.80;99.90;;;;;;6993236;28;20446;-79
2022/07/24 06:04:51;;;;;;;11.90;10.70;;;21.80;99.90;;;;;;6995971;28;20427;-78
2022/07/24 06:08:15;;;;;;;11.60;10.40;;;21.70;99.90;;;;;;6987543;28;20425;-77
2022/07/24 06:11:37;;;;;;;12.98;10.80;;;21.80;99.90;;;;;;6984142;28;20425;-79
2022/07/24 06:14:59;;;;;;;12.17;10.33;;;21.70;99.90;;;;;;6970213;28;20909;-78
2022/07/24 06:18:21;;;;;;;11.48;10.27;;;21.90;99.90;;;;;;6999462;28;20905;-77
2022/07/24 06:21:43;;;;;;;11.93;10.20;;;21.90;99.90;;;;;;7001410;28;20514;-80
2022/07/24 06:25:08;;;;;;;11.00;9.80;;;22.10;99.90;;;;;;6985729;28;20439;-79
2022/07/24 06:28:31;;;;;;;11.50;9.90;;;22.10;99.90;;;;;;6968943;28;20433;-80
2022/07/24 06:31:54;;;;;;;12.20;9.95;;;22.00;99.90;;;;;;6974020;28;20448;-80
2022/07/24 06:35:17;;;;;;;10.90;9.80;;;22.20;99.90;;;;;;6973996;28;20427;-78
2022/07/24 06:38:39;;;;;;;10.93;9.68;;;22.40;99.90;;;;;;7003199;28;20427;-81
2022/07/24 06:42:03;;;;;;;11.95;9.90;;;22.50;99.90;;;;;;7002224;28;20432;-79
2022/07/24 06:45:25;;;;;;;10.95;9.70;;;22.50;99.90;;;;;;6999883;28;20787;-82
2022/07/24 06:48:47;;;;;;;10.60;9.20;;;22.50;99.60;;;;;;6994137;28;20942;-80
2022/07/24 06:52:09;;;;;;;11.03;9.73;;;22.50;99.70;;;;;;6977112;28;20461;-79
2022/07/24 06:55:31;;;;;;;10.30;9.18;;;22.50;99.50;;;;;;6971187;28;20436;-80
2022/07/24 06:58:54;;;;;;;11.80;9.50;;;22.50;99.60;;;;;;6970593;28;20433;-80
2022/07/24 07:02:17;;;;;;;10.82;8.70;;;22.50;99.50;;;;;;6972344;28;20910;-78
2022/07/24 07:05:39;;;;;;;11.73;9.27;;;22.60;98.70;;;;;;6971391;28;20450;-79
2022/07/24 07:09:01;;;;;;;11.60;9.50;;;22.70;98.50;;;;;;6969860;28;20519;-80
2022/07/24 07:12:23;;;;;;;10.32;8.85;;;22.90;98.40;;;;;;6979116;28;20438;-80
2022/07/24 07:15:47;;;;;;;11.35;8.85;;;23.00;98.20;;;;;;6986382;28;20437;-77
2022/07/24 07:19:09;;;;;;;11.17;8.57;;;23.10;97.50;;;;;;7005774;28;20544;-79
2022/07/24 07:22:32;;;;;;;10.02;8.10;;;23.20;96.80;;;;;;7014232;28;20428;-76
2022/07/24 07:25:54;;;;;;;10.37;8.40;;;23.20;96.40;;;;;;7016859;28;20419;-77
2022/07/24 07:29:16;;;;;;;26.40;11.23;;;23.30;96.50;;;;;;7011768;28;20442;-78
2022/07/24 07:32:40;;;;;;;9.83;8.33;;;23.40;95.70;;;;;;7021779;28;20419;-76
2022/07/24 07:36:02;;;;;;;15.30;10.80;;;23.40;95.80;;;;;;7026028;28;20411;-78
2022/07/24 07:39:24;;;;;;;10.05;7.95;;;23.50;96.30;;;;;;7019869;28;20438;-78
2022/07/24 07:42:46;;;;;;;10.82;8.18;;;23.60;95.60;;;;;;6991646;28;20440;-78
2022/07/24 07:46:08;;;;;;;9.65;7.72;;;23.60;94.90;;;;;;6996516;28;20425;-77
2022/07/24 07:49:31;;;;;;;9.95;7.88;;;23.70;95.00;;;;;;6997148;28;20452;-79
2022/07/24 07:52:54;;;;;;;9.48;7.60;;;23.70;95.00;;;;;;6997755;28;20444;-79
2022/07/24 07:56:16;;;;;;;9.40;7.85;;;23.80;94.60;;;;;;6995345;28;20437;-78
2022/07/24 07:59:38;;;;;;;9.65;7.80;;;23.90;95.00;;;;;;7011514;28;20429;-77
2022/07/24 08:03:00;;;;;;;10.93;7.80;;;23.90;94.90;;;;;;7000502;28;20439;-76
2022/07/24 08:06:23;;;;;;;10.90;8.00;;;24.00;95.00;;;;;;6971471;28;20441;-77
2022/07/24 08:09:46;;;;;;;9.35;7.97;;;24.10;95.30;;;;;;6965626;28;20464;-76
2022/07/24 08:13:08;;;;;;;9.38;7.90;;;24.20;94.10;;;;;;6976341;28;20467;-76
2022/07/24 08:16:30;;;;;;;11.25;8.10;;;24.30;94.60;;;;;;6984572;28;20914;-78
2022/07/24 08:19:52;;;;;;;10.47;7.93;;;24.30;94.50;;;;;;6994100;28;20455;-79
2022/07/24 08:23:15;;;;;;;9.10;7.93;;;24.40;94.00;;;;;;6995946;28;20440;-77
2022/07/24 08:26:38;;;;;;;11.00;7.90;;;24.50;94.40;;;;;;6992418;28;20438;-78
2022/07/24 08:30:00;;;;;;;9.35;7.50;;;24.50;93.80;;;;;;6974293;28;20912;-78
2022/07/24 08:33:22;;;;;;;9.00;7.10;;;24.50;92.40;;;;;;6997984;28;20427;-77
2022/07/24 08:36:45;;;;;;;8.50;7.20;;;24.70;92.30;;;;;;6997568;28;20433;-78
2022/07/24 08:40:11;;;;;;;8.60;7.50;;;24.80;92.30;;;;;;6984709;28;20425;-78
2022/07/24 08:43:33;;;;;;;8.52;7.45;;;24.80;92.30;;;;;;6981039;28;20452;-76
2022/07/24 08:46:58;;;;;;;9.75;7.50;;;24.90;92.10;;;;;;6974788;28;20894;-78
2022/07/24 08:50:20;;;;;;;10.25;7.70;;;24.90;91.70;;;;;;6977312;28;20535;-77
2022/07/24 08:53:44;;;;;;;8.48;7.32;;;25.00;91.00;;;;;;6986493;28;20456;-75
2022/07/24 08:57:08;;;;;;;8.77;7.28;;;25.10;90.50;;;;;;6970674;28;20483;-78
2022/07/24 09:00:33;;;;;;;9.82;7.72;;;25.20;90.90;;;;;;6970204;28;20956;-75
2022/07/24 09:03:55;;;;;;;9.20;7.68;;;25.30;90.60;;;;;;6982171;28;20448;-78
2022/07/24 09:07:22;;;;;;;8.82;7.57;;;25.30;90.40;;;;;;6996397;28;20454;-75
2022/07/24 09:10:56;;;;;;;10.15;7.90;;;25.30;89.80;;;;;;6997640;28;20435;-77
2022/07/24 09:14:31;;;;;;;9.65;7.60;;;25.30;88.90;;;;;;6992914;28;20889;-77
2022/07/24 09:17:55;;;;;;;9.10;7.60;;;25.40;89.00;;;;;;6996823;28;20447;-79
2022/07/24 09:21:19;;;;;;;9.68;8.18;;;25.60;90.20;;;;;;6975112;28;20927;-77
2022/07/24 09:24:41;;;;;;;10.40;7.95;;;25.60;89.00;;;;;;6967813;28;20459;-77
2022/07/24 09:28:05;;;;;;;8.90;7.97;;;25.60;89.80;;;;;;6973781;28;20433;-76
2022/07/24 09:31:29;;;;;;;10.00;7.85;;;25.70;89.00;;;;;;6990895;28;20949;-77
2022/07/24 09:34:54;;;;;;;9.48;7.60;;;25.80;88.50;;;;;;6986846;28;20436;-76
2022/07/24 09:38:19;;;;;;;9.68;7.63;;;25.90;88.80;;;;;;6981963;28;20456;-75
2022/07/24 09:41:52;;;;;;;10.45;7.90;;;25.90;87.50;;;;;;6970038;28;21046;-77
2022/07/24 09:45:15;;;;;;;10.98;7.75;;;26.00;87.30;;;;;;6967760;28;20433;-77
2022/07/24 09:48:40;;;;;;;10.40;7.57;;;26.00;86.60;;;;;;6969085;28;20852;-75
2022/07/24 09:52:15;;;;;;;11.13;7.60;;;26.10;87.00;;;;;;6974462;28;20481;-78
2022/07/24 09:55:39;;;;;;;8.50;7.43;;;26.20;86.70;;;;;;6955590;28;20447;-79
2022/07/24 09:59:07;;;;;;;9.05;7.70;;;26.10;86.40;;;;;;6995866;28;20428;-77
2022/07/24 10:02:31;;;;;;;18.30;14.00;;;26.20;85.60;;;;;;6993367;28;20494;-77
2022/07/24 10:05:58;;;;;;;54.78;40.78;;;26.20;85.70;;;;;;6968700;28;20433;-76
2022/07/24 10:09:24;;;;;;;10.40;7.85;;;26.30;85.70;;;;;;6974299;28;20439;-75
2022/07/24 10:12:47;;;;;;;9.15;7.70;;;26.40;85.10;;;;;;6997043;28;20474;-76
2022/07/24 10:16:31;;;;;;;10.05;7.78;;;26.40;84.10;;;;;;6994037;28;20430;-77
2022/07/24 10:19:54;;;;;;;9.45;7.65;;;26.50;84.20;;;;;;6993064;28;20442;-77
2022/07/24 10:23:28;;;;;;;9.50;7.70;;;26.60;82.50;;;;;;6988613;28;20447;-73
2022/07/24 10:26:51;;;;;;;10.25;7.57;;;26.60;82.00;;;;;;6979958;28;20458;-79
2022/07/24 10:30:13;;;;;;;8.93;7.10;;;26.60;82.80;;;;;;6984484;28;20933;-77
2022/07/24 10:33:39;;;;;;;8.75;7.18;;;26.80;82.00;;;;;;6970482;28;20461;-76
2022/07/24 10:37:12;;;;;;;9.20;7.43;;;26.80;79.70;;;;;;6973519;28;20560;-77
2022/07/24 10:40:44;;;;;;;8.82;7.82;;;26.80;79.50;;;;;;6978123;28;20477;-78
2022/07/24 10:44:15;;;;;;;7.85;7.03;;;26.80;78.30;;;;;;6975099;28;20447;-79
2022/07/24 10:47:37;;;;;;;9.80;7.47;;;27.00;79.10;;;;;;6990575;28;20535;-80
2022/07/24 10:51:13;;;;;;;9.98;7.50;;;26.90;77.20;;;;;;6972479;28;20456;-78
2022/07/24 10:54:35;;;;;;;10.77;7.57;;;27.00;78.00;;;;;;6964877;28;20882;-78
2022/07/24 10:58:01;;;;;;;8.93;7.22;;;27.10;75.80;;;;;;6993695;28;20436;-76
2022/07/24 11:01:38;;;;;;;10.63;7.20;;;27.20;74.90;;;;;;6992649;28;20427;-79
2022/07/24 11:05:27;;;;;;;11.13;7.07;;;27.30;74.70;;;;;;6965950;28;20475;-79
2022/07/24 11:08:50;;;;;;;8.90;7.10;;;27.30;76.80;;;;;;6986891;28;20470;-78
2022/07/24 11:12:12;;;;;;;8.67;6.80;;;27.40;76.40;;;;;;6992514;28;20439;-77
2022/07/24 11:16:13;;;;;;;9.27;7.10;;;27.50;74.40;;;;;;6974654;28;20963;-77
2022/07/24 11:19:37;;;;;;;9.70;6.90;;;27.60;73.50;;;;;;6975324;28;20444;-77
2022/07/24 11:22:59;;;;;;;9.45;6.88;;;27.70;74.00;;;;;;6982661;28;20854;-78
2022/07/24 11:26:40;;;;;;;9.57;6.70;;;27.70;72.70;;;;;;6973760;28;20503;-77
2022/07/24 11:30:02;;;;;;;9.05;7.13;;;27.70;73.10;;;;;;6959489;28;20439;-77
2022/07/24 11:33:26;;;;;;;10.70;8.10;;;27.80;72.70;;;;;;6965319;28;20499;-78
2022/07/24 11:36:51;;;;;;;9.73;7.10;;;27.80;72.70;;;;;;6976504;28;20475;-78
2022/07/24 11:40:18;;;;;;;8.20;6.93;;;27.90;72.90;;;;;;6969759;28;20454;-79
2022/07/24 11:43:51;;;;;;;7.37;6.50;;;28.00;71.10;;;;;;6960027;28;20444;-76
2022/07/24 11:47:15;;;;;;;9.30;6.82;;;28.10;72.50;;;;;;6961144;28;20439;-78
2022/07/24 11:50:39;;;;;;;8.00;7.20;;;28.30;73.50;;;;;;6974704;28;20544;-78
2022/07/24 11:54:02;;;;;;;7.80;6.55;;;28.30;72.70;;;;;;6960608;28;20472;-80
2022/07/24 11:57:26;;;;;;;8.10;7.30;;;28.40;71.80;;;;;;6964262;28;20478;-77
2022/07/24 12:00:48;;;;;;;8.27;6.68;;;28.50;72.00;;;;;;6964085;28;20611;-76
2022/07/24 12:04:11;;;;;;;7.72;6.80;;;28.50;70.40;;;;;;6968507;28;20441;-78
2022/07/24 12:07:35;;;;;;;12.33;9.13;;;28.60;70.70;;;;;;6963611;28;20939;-75
2022/07/24 12:10:59;;;;;;;12.35;9.82;;;28.60;70.90;;;;;;6960101;28;20486;-77
2022/07/24 12:14:22;;;;;;;9.17;7.70;;;28.70;70.30;;;;;;6968711;28;20933;-78
2022/07/24 12:17:57;;;;;;;8.90;6.72;;;28.90;72.60;;;;;;6963814;28;20445;-79
2022/07/24 12:21:19;;;;;;;7.65;6.85;;;29.10;69.60;;;;;;6960472;28;20436;-79
2022/07/24 12:24:42;;;;;;;8.07;7.00;;;29.10;69.40;;;;;;6968049;28;20444;-79
2022/07/24 12:28:07;;;;;;;9.75;6.80;;;29.10;68.00;;;;;;6968032;28;20457;-78
2022/07/24 12:31:29;;;;;;;7.53;6.73;;;29.20;70.20;;;;;;6966646;28;20437;-78
2022/07/24 12:34:51;;;;;;;7.70;6.70;;;29.40;71.30;;;;;;6968186;28;20498;-77
2022/07/24 12:38:24;;;;;;;9.68;7.05;;;29.40;70.30;;;;;;6968123;28;20989;-78
2022/07/24 12:41:48;;;;;;;9.57;6.78;;;29.40;66.90;;;;;;6968578;28;20425;-78
2022/07/24 12:45:12;;;;;;;9.13;6.72;;;29.50;69.30;;;;;;6967772;28;20494;-80
2022/07/24 12:48:34;;;;;;;8.00;6.75;;;29.60;67.20;;;;;;6967947;28;21004;-78
2022/07/24 12:51:59;;;;;;;8.20;7.07;;;29.50;67.00;;;;;;6967961;28;20425;-78
2022/07/24 12:55:22;;;;;;;7.93;6.53;;;29.50;66.10;;;;;;6967976;28;20512;-79
2022/07/24 12:59:01;;;;;;;9.60;7.20;;;29.70;66.20;;;;;;6967937;28;20440;-78
2022/07/24 13:02:25;;;;;;;9.15;6.90;;;29.80;68.70;;;;;;6967685;28;20440;-78
2022/07/24 13:05:51;;;;;;;9.00;6.70;;;29.80;66.90;;;;;;6969118;28;20430;-79
2022/07/24 13:09:16;;;;;;;8.95;6.65;;;29.90;65.60;;;;;;6971944;28;20772;-77
2022/07/24 13:12:38;;;;;;;7.82;7.03;;;29.80;65.90;;;;;;6969639;28;20424;-76
2022/07/24 13:16:02;;;;;;;8.88;7.03;;;30.20;66.60;;;;;;6971761;28;20436;-79
2022/07/24 13:19:24;;;;;;;8.43;6.93;;;30.10;65.70;;;;;;6972748;28;20440;-78
2022/07/24 13:22:46;;;;;;;9.05;6.90;;;30.20;65.70;;;;;;6977648;28;20431;-78
2022/07/24 13:26:09;;;;;;;7.80;7.00;;;30.40;65.10;;;;;;6972040;28;20440;-79
2022/07/24 13:29:34;;;;;;;8.07;6.68;;;30.30;63.70;;;;;;6971971;28;20822;-78
2022/07/24 13:32:57;;;;;;;8.87;6.73;;;30.40;63.50;;;;;;6971852;28;20917;-78
2022/07/24 13:36:20;;;;;;;7.47;6.72;;;30.50;62.80;;;;;;6971893;28;20425;-79
2022/07/24 13:39:42;;;;;;;8.52;6.68;;;30.40;62.20;;;;;;6971681;28;20433;-79
2022/07/24 13:43:04;;;;;;;7.67;6.87;;;30.40;62.50;;;;;;6971577;28;20501;-78
2022/07/24 13:46:27;;;;;;;7.73;6.80;;;30.30;62.30;;;;;;6971755;28;20546;-78
2022/07/24 13:49:50;;;;;;;8.27;6.95;;;30.50;62.30;;;;;;6971546;28;20523;-80
2022/07/24 13:53:12;;;;;;;8.23;6.73;;;30.70;61.70;;;;;;6971808;28;20927;-78
2022/07/24 13:56:35;;;;;;;9.50;7.05;;;30.90;63.90;;;;;;6971789;28;20469;-76
2022/07/24 13:59:57;;;;;;;8.27;6.97;;;30.90;62.30;;;;;;6971627;28;20432;-77
2022/07/24 14:03:19;;;;;;;8.23;6.90;;;30.90;61.50;;;;;;6971120;28;20702;-79
2022/07/24 14:06:43;;;;;;;7.50;6.55;;;30.70;61.00;;;;;;6970953;28;20436;-77
2022/07/24 14:10:06;;;;;;;8.90;7.00;;;31.00;61.40;;;;;;6970863;28;20483;-76
2022/07/24 14:13:28;;;;;;;8.68;6.75;;;30.80;60.60;;;;;;6970916;28;20472;-78
2022/07/24 14:16:50;;;;;;;8.18;6.82;;;30.70;60.80;;;;;;6971092;28;20895;-76
2022/07/24 14:20:14;;;;;;;8.17;6.67;;;31.00;60.30;;;;;;6970857;28;20429;-75
2022/07/24 14:23:37;;;;;;;8.13;6.43;;;31.20;61.00;;;;;;6970874;28;20437;-78
2022/07/24 14:26:59;;;;;;;7.55;6.28;;;31.60;62.20;;;;;;6970085;28;20440;-77
2022/07/24 14:30:21;;;;;;;10.57;8.77;;;31.80;62.60;;;;;;6970270;28;20429;-78
2022/07/24 14:33:43;;;;;;;8.00;6.55;;;32.10;61.80;;;;;;6969530;28;20429;-78
2022/07/24 14:37:06;;;;;;;7.78;6.70;;;32.10;59.50;;;;;;6970642;28;20429;-77
2022/07/24 14:40:29;;;;;;;8.00;6.57;;;32.00;58.70;;;;;;6970308;28;20460;-76
2022/07/24 14:43:51;;;;;;;8.80;6.90;;;32.00;59.10;;;;;;6969966;28;20499;-75
2022/07/24 14:47:15;;;;;;;7.88;6.40;;;31.90;58.40;;;;;;6969580;28;20419;-77
2022/07/24 14:50:37;;;;;;;7.85;6.43;;;32.00;60.10;;;;;;6969839;28;20898;-76
2022/07/24 14:53:59;;;;;;;8.05;6.88;;;32.20;61.60;;;;;;6970675;28;20871;-77
2022/07/24 14:57:23;;;;;;;8.27;6.35;;;32.40;60.00;;;;;;6970740;28;20914;-76
2022/07/24 15:00:46;;;;;;;8.10;6.77;;;32.60;59.90;;;;;;6971359;28;20425;-76
2022/07/24 15:04:09;;;;;;;8.43;6.68;;;32.70;57.60;;;;;;6971633;28;20441;-76
2022/07/24 15:07:31;;;;;;;9.00;6.60;;;32.80;59.30;;;;;;6970867;28;20432;-78
2022/07/24 15:10:53;;;;;;;8.15;6.70;;;32.80;58.80;;;;;;6970142;28;20518;-78
2022/07/24 15:14:16;;;;;;;8.82;6.70;;;32.80;57.10;;;;;;6969713;28;20425;-77
2022/07/24 15:17:38;;;;;;;8.55;6.50;;;33.00;57.60;;;;;;6968910;28;20461;-80
2022/07/24 15:21:01;;;;;;;8.13;6.82;;;33.10;56.50;;;;;;6978156;28;20429;-78
2022/07/24 15:24:23;;;;;;;7.65;6.55;;;33.00;56.70;;;;;;6970156;28;20440;-77
2022/07/24 15:27:47;;;;;;;8.15;6.65;;;33.10;56.40;;;;;;6968293;28;20441;-77
2022/07/24 15:31:10;;;;;;;7.50;6.43;;;33.30;56.10;;;;;;6981810;28;20430;-80
2022/07/24 15:34:32;;;;;;;6.97;6.28;;;33.40;58.20;;;;;;6981739;28;20429;-75
2022/07/24 15:37:54;;;;;;;8.00;6.60;;;33.50;56.70;;;;;;6962937;28;20464;-77
2022/07/24 15:41:17;;;;;;;7.70;6.35;;;33.60;55.60;;;;;;6956980;28;20808;-77
2022/07/24 15:44:39;;;;;;;8.35;6.43;;;33.70;56.70;;;;;;6982835;28;21140;-79
2022/07/24 15:48:02;;;;;;;7.10;6.40;;;33.60;58.80;;;;;;6967058;28;20473;-77
2022/07/24 15:51:24;;;;;;;8.77;7.22;;;33.90;56.90;;;;;;6975637;28;20568;-76
2022/07/24 15:54:46;;;;;;;10.77;9.38;;;34.00;55.90;;;;;;6965675;28;20480;-78
2022/07/24 15:58:08;;;;;;;9.50;8.50;;;34.20;56.70;;;;;;6986728;28;20447;-78
2022/07/24 16:01:31;;;;;;;8.32;7.32;;;34.00;55.10;;;;;;6972914;28;20499;-78
2022/07/24 16:04:54;;;;;;;8.60;6.60;;;34.10;54.70;;;;;;6964139;28;20444;-76
2022/07/24 16:08:16;;;;;;;9.13;6.43;;;34.20;54.20;;;;;;6984996;28;20435;-77
2022/07/24 16:11:38;;;;;;;7.75;6.22;;;34.10;55.80;;;;;;6942705;28;20463;-76
2022/07/24 16:15:00;;;;;;;9.07;6.68;;;34.20;55.90;;;;;;6974864;28;20472;-79
2022/07/24 16:18:22;;;;;;;7.25;6.50;;;34.40;55.60;;;;;;6965076;28;20433;-80
2022/07/24 16:21:46;;;;;;;7.85;6.45;;;34.60;54.30;;;;;;6964401;28;20445;-77
2022/07/24 16:25:09;;;;;;;7.60;6.80;;;35.00;54.00;;;;;;6962768;28;20496;-78
2022/07/24 16:28:31;;;;;;;7.82;6.40;;;34.80;53.60;;;;;;6964384;28;20475;-76
2022/07/24 16:31:53;;;;;;;7.90;6.70;;;34.80;54.30;;;;;;6967626;28;20524;-77
2022/07/24 16:35:15;;;;;;;7.55;6.30;;;34.60;54.30;;;;;;6976668;28;20987;-77
2022/07/24 16:38:39;;;;;;;8.65;6.50;;;34.80;54.50;;;;;;6978077;28;20423;-78
2022/07/24 16:42:01;;;;;;;7.95;6.07;;;34.80;54.50;;;;;;6975766;28;20565;-76
2022/07/24 16:45:23;;;;;;;6.88;6.05;;;34.90;55.20;;;;;;6977667;28;20522;-77
2022/07/24 16:48:45;;;;;;;7.68;6.18;;;35.10;54.80;;;;;;6978759;28;20486;-77
2022/07/24 16:52:07;;;;;;;6.80;6.07;;;35.20;53.80;;;;;;6979280;28;20461;-77
2022/07/24 16:55:31;;;;;;;6.95;6.00;;;35.20;54.40;;;;;;6982679;28;20458;-79
2022/07/24 16:58:53;;;;;;;6.77;6.07;;;35.10;53.90;;;;;;6979470;28;20433;-79
2022/07/24 17:02:15;;;;;;;7.28;6.40;;;35.00;53.70;;;;;;6978242;28;20467;-77
2022/07/24 17:05:37;;;;;;;7.43;6.53;;;35.10;53.60;;;;;;6975067;28;20441;-77
2022/07/24 17:08:59;;;;;;;7.32;6.18;;;35.20;52.80;;;;;;6969130;28;20476;-77
2022/07/24 17:12:23;;;;;;;7.30;6.43;;;35.10;53.50;;;;;;6966123;28;20437;-78
2022/07/24 17:15:45;;;;;;;7.63;6.28;;;35.10;53.40;;;;;;6984623;28;20508;-78
2022/07/24 17:19:07;;;;;;;7.15;6.10;;;35.20;53.70;;;;;;6983992;28;20463;-77
2022/07/24 17:22:29;;;;;;;7.60;6.30;;;35.10;54.20;;;;;;6968968;28;20457;-77
2022/07/24 17:25:51;;;;;;;8.05;6.15;;;35.20;53.10;;;;;;6967637;28;20493;-77